This is the latest recevied weather packets stored in our database for station/object OE-11272. If no packets are shown the sender has not sent any weather packets the latest 10 day(s).
| Time | Temp. | Humidity | Pressure | Rain* | Wind** | Luminosity | Snow |
|---|---|---|---|---|---|---|---|
| 1787829925 | 26.67° C | 58% | 1015 hPa | 0 mm | - | 756 W/m² | - |
| 1787829099 | 26.67° C | 62% | 1015.2 hPa | 0 mm | - | 743 W/m² | - |
| 1787828726 | 25.56° C | 61% | 1015.6 hPa | 0 mm | - | 750 W/m² | - |
| 1787828126 | 26.11° C | 62% | 1015.5 hPa | 0 mm | - | 750 W/m² | - |
| 1787827298 | 25.56° C | 63% | 1015.7 hPa | 0 mm | - | 762 W/m² | - |
| 1787826925 | 25° C | 62% | 1015.9 hPa | 0 mm | - | 737 W/m² | - |
| 1787826326 | 24.44° C | 65% | 1016.1 hPa | 0 mm | - | 668 W/m² | - |
| 1787825499 | 24.44° C | 65% | 1016.2 hPa | 0 mm | - | 556 W/m² | - |
| 1787825126 | 24.44° C | 65% | 1016.3 hPa | 0 mm | - | 468 W/m² | - |
| 1787824526 | 23.89° C | 67% | 1016.3 hPa | 0 mm | - | 550 W/m² | - |
| 1787823699 | 23.33° C | 68% | 1016.4 hPa | 0 mm | - | 525 W/m² | - |
| 1787823326 | 23.33° C | 67% | 1016.5 hPa | 0 mm | - | 556 W/m² | - |
| 1787822725 | 23.33° C | 68% | 1016.5 hPa | 0 mm | - | 437 W/m² | - |
| 1787821899 | 22.78° C | 70% | 1016.6 hPa | 0 mm | - | 425 W/m² | - |
| 1787821525 | 22.78° C | 71% | 1016.8 hPa | 0 mm | - | 350 W/m² | - |
| 1787820926 | 22.78° C | 69% | 1016.8 hPa | 0 mm | - | 406 W/m² | - |
| 1787820099 | 22.78° C | 72% | 1016.8 hPa | 0 mm | - | 418 W/m² | - |
| 1787819726 | 22.22° C | 73% | 1016.8 hPa | 0 mm | - | 518 W/m² | - |
| 1787819126 | 22.22° C | 73% | 1016.9 hPa | 0 mm | - | 412 W/m² | - |
| 1787818299 | 21.67° C | 74% | 1017 hPa | 0 mm | - | 425 W/m² | - |
| 1787817925 | 21.67° C | 76% | 1017.2 hPa | 0 mm | - | 512 W/m² | - |
| 1787817325 | 21.11° C | 80% | 1017.4 hPa | 0 mm | - | 481 W/m² | - |
| 1787816499 | 20.56° C | 79% | 1017.5 hPa | 0 mm | - | 443 W/m² | - |
| 1787816125 | 20° C | 81% | 1017.6 hPa | 0 mm | - | 418 W/m² | - |
| 1787815522 | 20° C | 83% | 1017.6 hPa | 0 mm | - | 362 W/m² | - |
* Rain latest hour (hover to see other rain measurements)
** Current wind speed in m/s (hover to see current wind gust speed)